Time;durP1;ratioP1;P1;durP2;ratioP2;P2;SDS_P1;SDS_P2;PMS_P1;PMS_P2;Temp;Humidity;BMP_temperature;BMP_pressure;BME280_temperature;BME280_humidity;BME280_pressure;Samples;Min_cycle;Max_cycle;Signal;HPM_P1;HPM_P2
2023/05/03 00:01:00;;;;;;;13.87;10.50;;;;;;;;;;774773;180;933184;-59
2023/05/03 00:03:24;;;;;;;15.53;11.90;;;;;;;;;;774682;179;920855;-59
2023/05/03 00:05:49;;;;;;;15.10;10.53;;;;;;;;;;774340;179;919563;-60
2023/05/03 00:08:15;;;;;;;15.70;11.73;;;;;;;;;;782021;179;868694;-59
2023/05/03 00:10:40;;;;;;;15.50;11.00;;;;;;;;;;774197;179;916476;-59
2023/05/03 00:13:06;;;;;;;21.50;11.90;;;;;;;;;;777000;177;934517;-60
2023/05/03 00:15:32;;;;;;;15.63;10.87;;;;;;;;;;777137;179;917095;-60
2023/05/03 00:17:58;;;;;;;19.27;11.83;;;;;;;;;;774243;179;869911;-60
2023/05/03 00:20:24;;;;;;;15.90;11.82;;;;;;;;;;774509;180;922823;-60
2023/05/03 00:22:50;;;;;;;13.43;10.50;;;;;;;;;;781633;179;919311;-60
2023/05/03 00:25:15;;;;;;;20.13;10.83;;;;;;;;;;779434;177;918670;-59
2023/05/03 00:27:41;;;;;;;17.30;11.07;;;;;;;;;;778184;179;919114;-59
2023/05/03 00:30:08;;;;;;;15.63;10.43;;;;;;;;;;777333;179;918048;-61
2023/05/03 00:32:33;;;;;;;19.00;12.70;;;;;;;;;;782031;178;918295;-59
2023/05/03 00:34:59;;;;;;;17.40;12.13;;;;;;;;;;756430;181;918001;-59
2023/05/03 00:37:25;;;;;;;18.20;13.13;;;;;;;;;;772730;179;919588;-59
2023/05/03 00:39:51;;;;;;;19.60;12.10;;;;;;;;;;780032;179;897769;-59
2023/05/03 00:42:17;;;;;;;17.00;12.00;;;;;;;;;;775445;179;925192;-59
2023/05/03 00:44:43;;;;;;;16.30;11.87;;;;;;;;;;777375;179;919363;-60
2023/05/03 00:47:08;;;;;;;16.80;12.10;;;;;;;;;;780858;179;923253;-59
2023/05/03 00:49:34;;;;;;;17.33;12.07;;;;;;;;;;777021;179;919926;-60
2023/05/03 00:52:00;;;;;;;19.73;12.70;;;;;;;;;;776846;179;854850;-60
2023/05/03 00:54:26;;;;;;;20.10;12.47;;;;;;;;;;775203;179;920171;-59
2023/05/03 00:56:52;;;;;;;16.20;12.57;;;;;;;;;;773834;180;919114;-59
2023/05/03 00:59:18;;;;;;;14.00;10.20;;;;;;;;;;773415;180;920482;-60
2023/05/03 01:01:43;;;;;;;19.60;12.40;;;;;;;;;;776257;178;919292;-60
2023/05/03 01:04:09;;;;;;;16.53;13.23;;;;;;;;;;780872;180;820604;-60
2023/05/03 01:06:36;;;;;;;16.37;12.73;;;;;;;;;;776734;180;919092;-60
2023/05/03 01:09:02;;;;;;;17.37;12.50;;;;;;;;;;772616;177;874107;-60
2023/05/03 01:11:28;;;;;;;21.83;13.20;;;;;;;;;;780059;180;918775;-60
2023/05/03 01:13:55;;;;;;;17.20;13.20;;;;;;;;;;778280;179;810027;-61
2023/05/03 01:16:23;;;;;;;16.63;11.27;;;;;;;;;;775766;179;910352;-59
2023/05/03 01:18:49;;;;;;;19.15;13.30;;;;;;;;;;772360;179;881475;-60
2023/05/03 01:21:16;;;;;;;17.23;12.10;;;;;;;;;;778542;178;817010;-61
2023/05/03 01:23:42;;;;;;;18.43;12.50;;;;;;;;;;775554;179;921932;-62
2023/05/03 01:26:14;;;;;;;14.40;11.73;;;;;;;;;;777146;179;817133;-62
2023/05/03 01:28:40;;;;;;;17.70;13.40;;;;;;;;;;775659;179;925014;-63
2023/05/03 01:31:06;;;;;;;20.12;14.20;;;;;;;;;;764667;181;904682;-63
2023/05/03 01:33:33;;;;;;;19.83;13.87;;;;;;;;;;766007;179;919478;-63
2023/05/03 01:36:12;;;;;;;19.83;13.57;;;;;;;;;;761513;183;918874;-62
2023/05/03 01:38:37;;;;;;;22.00;14.43;;;;;;;;;;770936;179;921741;-62
2023/05/03 01:41:03;;;;;;;26.80;13.27;;;;;;;;;;783687;179;914000;-62
2023/05/03 01:43:30;;;;;;;17.80;12.57;;;;;;;;;;777359;179;919053;-62
2023/05/03 01:45:56;;;;;;;19.10;14.33;;;;;;;;;;776039;179;917434;-63
2023/05/03 01:48:22;;;;;;;15.93;12.40;;;;;;;;;;783477;179;919412;-62
2023/05/03 01:50:47;;;;;;;21.83;14.10;;;;;;;;;;776787;178;917055;-62
2023/05/03 01:53:13;;;;;;;21.60;14.83;;;;;;;;;;772266;179;923731;-62
2023/05/03 01:55:39;;;;;;;21.33;16.00;;;;;;;;;;779976;179;917767;-63
2023/05/03 01:58:05;;;;;;;22.60;16.37;;;;;;;;;;775007;179;919763;-62
2023/05/03 02:00:31;;;;;;;16.87;12.87;;;;;;;;;;774204;179;921029;-64
2023/05/03 02:02:57;;;;;;;21.67;14.40;;;;;;;;;;778343;179;918750;-62
2023/05/03 02:05:23;;;;;;;22.63;14.07;;;;;;;;;;782612;179;919390;-62
2023/05/03 02:07:48;;;;;;;21.80;13.80;;;;;;;;;;777967;179;918983;-62
2023/05/03 02:10:15;;;;;;;18.97;14.00;;;;;;;;;;769599;178;917515;-62
2023/05/03 02:12:40;;;;;;;16.80;13.30;;;;;;;;;;774854;177;918812;-63
2023/05/03 02:15:06;;;;;;;19.10;14.20;;;;;;;;;;753436;183;918999;-62
2023/05/03 02:17:33;;;;;;;19.67;13.13;;;;;;;;;;761765;180;917741;-62
2023/05/03 02:19:58;;;;;;;21.93;13.70;;;;;;;;;;783921;179;919822;-62
2023/05/03 02:22:24;;;;;;;19.93;13.60;;;;;;;;;;777673;179;919771;-62
2023/05/03 02:24:50;;;;;;;19.60;13.87;;;;;;;;;;777289;178;919161;-63
2023/05/03 02:27:16;;;;;;;15.63;10.30;;;;;;;;;;774300;180;919798;-62
2023/05/03 02:29:42;;;;;;;16.20;11.10;;;;;;;;;;770342;182;817517;-62
2023/05/03 02:32:07;;;;;;;17.37;11.07;;;;;;;;;;757172;183;919295;-62
2023/05/03 02:34:33;;;;;;;20.60;13.50;;;;;;;;;;769439;180;913388;-63
2023/05/03 02:36:59;;;;;;;17.73;11.60;;;;;;;;;;782515;180;816090;-62
2023/05/03 02:39:25;;;;;;;16.43;11.20;;;;;;;;;;779019;179;918927;-63
2023/05/03 02:41:51;;;;;;;15.87;11.20;;;;;;;;;;773737;180;920273;-62
2023/05/03 02:44:17;;;;;;;15.43;9.57;;;;;;;;;;783128;180;923219;-63
2023/05/03 02:46:42;;;;;;;16.67;10.30;;;;;;;;;;777091;177;916321;-62
2023/05/03 02:49:08;;;;;;;17.30;10.82;;;;;;;;;;777165;178;918903;-62
2023/05/03 02:51:35;;;;;;;21.45;12.40;;;;;;;;;;780512;179;919467;-62
2023/05/03 02:54:01;;;;;;;14.03;8.10;;;;;;;;;;777833;180;908059;-62
2023/05/03 02:56:27;;;;;;;16.53;12.53;;;;;;;;;;774824;179;922100;-62
2023/05/03 02:58:52;;;;;;;15.07;11.17;;;;;;;;;;775013;179;933663;-63
2023/05/03 03:01:18;;;;;;;13.95;10.73;;;;;;;;;;780577;179;911659;-63
2023/05/03 03:03:44;;;;;;;17.67;12.83;;;;;;;;;;781703;179;871006;-62
2023/05/03 03:06:10;;;;;;;23.97;12.97;;;;;;;;;;779976;179;799826;-62
2023/05/03 03:08:36;;;;;;;16.90;8.33;;;;;;;;;;783587;179;717387;-63
2023/05/03 03:11:02;;;;;;;8.27;5.57;;;;;;;;;;775906;178;916104;-63
2023/05/03 03:13:27;;;;;;;14.10;10.40;;;;;;;;;;765341;180;909166;-62
2023/05/03 03:15:53;;;;;;;14.73;11.60;;;;;;;;;;772766;181;919072;-61
2023/05/03 03:18:19;;;;;;;9.87;8.33;;;;;;;;;;772026;179;918792;-62
2023/05/03 03:20:45;;;;;;;18.93;13.60;;;;;;;;;;770576;178;918881;-70
2023/05/03 03:23:11;;;;;;;12.03;10.57;;;;;;;;;;768831;180;916305;-71
2023/05/03 03:25:37;;;;;;;17.27;11.33;;;;;;;;;;750044;186;709720;-70
2023/05/03 03:28:03;;;;;;;14.40;10.13;;;;;;;;;;756437;183;919596;-70
2023/05/03 03:30:28;;;;;;;14.90;10.95;;;;;;;;;;752707;182;955832;-70
2023/05/03 03:32:54;;;;;;;12.68;9.70;;;;;;;;;;761267;181;917232;-70
2023/05/03 03:35:20;;;;;;;14.97;10.77;;;;;;;;;;758389;181;915967;-70
2023/05/03 03:37:46;;;;;;;12.83;9.90;;;;;;;;;;747542;186;917695;-70
2023/05/03 03:40:12;;;;;;;9.70;7.23;;;;;;;;;;765748;183;909254;-70
2023/05/03 03:42:38;;;;;;;14.00;10.30;;;;;;;;;;761265;180;915046;-70
2023/05/03 03:45:04;;;;;;;15.17;10.23;;;;;;;;;;760331;180;919083;-70
2023/05/03 03:47:30;;;;;;;12.37;9.93;;;;;;;;;;759314;181;919296;-69
2023/05/03 03:49:55;;;;;;;11.17;9.30;;;;;;;;;;769072;182;919879;-70
2023/05/03 03:52:21;;;;;;;13.27;9.07;;;;;;;;;;756821;183;920857;-69
2023/05/03 03:54:47;;;;;;;16.00;11.03;;;;;;;;;;758057;183;918796;-70
2023/05/03 03:57:13;;;;;;;13.27;8.80;;;;;;;;;;761537;181;1019163;-69
2023/05/03 03:59:39;;;;;;;15.03;10.70;;;;;;;;;;764901;180;911650;-70
2023/05/03 04:02:05;;;;;;;16.63;10.30;;;;;;;;;;765798;183;645746;-69
2023/05/03 04:04:31;;;;;;;15.00;11.37;;;;;;;;;;770151;180;815845;-71
2023/05/03 04:06:57;;;;;;;16.57;11.13;;;;;;;;;;765694;180;935099;-70
2023/05/03 04:09:22;;;;;;;14.93;10.07;;;;;;;;;;766227;180;913429;-70
2023/05/03 04:11:49;;;;;;;18.50;11.50;;;;;;;;;;761132;183;918057;-71
2023/05/03 04:14:15;;;;;;;20.10;11.70;;;;;;;;;;767784;182;1120963;-70
2023/05/03 04:16:40;;;;;;;22.77;10.77;;;;;;;;;;763123;183;614419;-70
2023/05/03 04:19:06;;;;;;;16.07;10.90;;;;;;;;;;764947;182;917434;-70
2023/05/03 04:21:32;;;;;;;19.03;10.40;;;;;;;;;;764919;183;642193;-69
2023/05/03 04:23:59;;;;;;;21.73;13.07;;;;;;;;;;766275;182;629994;-69
2023/05/03 04:26:24;;;;;;;15.80;11.80;;;;;;;;;;765458;180;644965;-69
2023/05/03 04:28:50;;;;;;;21.97;15.53;;;;;;;;;;763917;181;918757;-69
2023/05/03 04:31:16;;;;;;;17.20;13.47;;;;;;;;;;764802;181;918275;-70
2023/05/03 04:33:41;;;;;;;16.97;12.80;;;;;;;;;;767543;183;880638;-70
2023/05/03 04:36:08;;;;;;;26.87;16.97;;;;;;;;;;763949;183;623425;-69
2023/05/03 04:38:34;;;;;;;28.80;17.40;;;;;;;;;;758762;181;733335;-69
2023/05/03 04:40:59;;;;;;;24.80;15.37;;;;;;;;;;754427;181;915244;-71
2023/05/03 04:43:25;;;;;;;13.87;8.87;;;;;;;;;;764786;181;641369;-70
2023/05/03 04:45:51;;;;;;;41.40;20.33;;;;;;;;;;765193;181;918288;-69
2023/05/03 04:48:17;;;;;;;32.43;16.30;;;;;;;;;;743370;187;898397;-69
2023/05/03 04:50:43;;;;;;;26.47;14.17;;;;;;;;;;741556;186;627856;-70
2023/05/03 04:53:09;;;;;;;24.27;13.53;;;;;;;;;;764530;183;635151;-69
2023/05/03 04:55:34;;;;;;;27.50;13.25;;;;;;;;;;767341;182;633397;-70
2023/05/03 04:58:00;;;;;;;19.20;12.00;;;;;;;;;;761301;183;648911;-70
2023/05/03 05:00:26;;;;;;;23.70;12.00;;;;;;;;;;766124;181;631989;-69
2023/05/03 05:02:52;;;;;;;21.73;14.37;;;;;;;;;;757641;180;916204;-69
2023/05/03 05:05:18;;;;;;;31.83;16.80;;;;;;;;;;760994;181;913633;-70
2023/05/03 05:07:44;;;;;;;20.60;14.97;;;;;;;;;;737470;187;919820;-70
2023/05/03 05:10:09;;;;;;;22.33;13.93;;;;;;;;;;756241;183;918679;-69
2023/05/03 05:12:35;;;;;;;28.67;14.50;;;;;;;;;;762540;182;916766;-70
2023/05/03 05:15:01;;;;;;;30.03;17.00;;;;;;;;;;765680;180;943813;-70
2023/05/03 05:17:27;;;;;;;21.87;11.27;;;;;;;;;;763265;180;951587;-69
2023/05/03 05:19:53;;;;;;;19.33;12.53;;;;;;;;;;769415;180;800467;-70
2023/05/03 05:22:19;;;;;;;15.80;9.73;;;;;;;;;;759742;182;920924;-70
2023/05/03 05:24:45;;;;;;;12.47;8.77;;;;;;;;;;767880;180;920503;-69
2023/05/03 05:27:10;;;;;;;12.07;8.03;;;;;;;;;;756391;181;921755;-69
2023/05/03 05:29:36;;;;;;;12.27;7.43;;;;;;;;;;761175;183;919022;-69
2023/05/03 05:32:04;;;;;;;10.43;7.50;;;;;;;;;;766907;181;815845;-71
2023/05/03 05:34:29;;;;;;;18.30;10.07;;;;;;;;;;771414;182;919308;-69
2023/05/03 05:36:55;;;;;;;11.57;7.97;;;;;;;;;;764549;181;918800;-69
2023/05/03 05:39:22;;;;;;;13.57;10.00;;;;;;;;;;762055;181;917910;-69
2023/05/03 05:41:46;;;;;;;19.03;10.67;;;;;;;;;;764308;181;813119;-69
2023/05/03 05:44:12;;;;;;;9.20;6.13;;;;;;;;;;761366;181;919654;-70
2023/05/03 05:46:38;;;;;;;14.97;8.07;;;;;;;;;;764269;181;810382;-69
2023/05/03 05:49:04;;;;;;;14.83;8.67;;;;;;;;;;764452;181;713875;-69
2023/05/03 05:51:30;;;;;;;17.27;9.10;;;;;;;;;;756768;178;915586;-68
2023/05/03 05:53:56;;;;;;;13.30;7.73;;;;;;;;;;759003;181;1021670;-68
2023/05/03 05:56:22;;;;;;;9.80;6.87;;;;;;;;;;770812;181;875825;-70
2023/05/03 05:58:48;;;;;;;18.40;7.53;;;;;;;;;;758391;181;929360;-69
2023/05/03 06:01:13;;;;;;;16.50;8.87;;;;;;;;;;761308;180;937232;-69
2023/05/03 06:03:39;;;;;;;15.07;7.87;;;;;;;;;;763953;181;921892;-70
2023/05/03 06:06:05;;;;;;;18.20;8.20;;;;;;;;;;765914;180;916614;-70
2023/05/03 06:08:31;;;;;;;6.70;5.00;;;;;;;;;;758541;181;1021238;-69
2023/05/03 06:10:57;;;;;;;9.50;5.63;;;;;;;;;;761347;181;919023;-70
2023/05/03 06:13:23;;;;;;;14.00;7.87;;;;;;;;;;765041;181;915839;-70
2023/05/03 06:15:49;;;;;;;11.43;8.03;;;;;;;;;;755544;181;921914;-70
2023/05/03 06:18:14;;;;;;;7.70;5.68;;;;;;;;;;768353;181;815113;-70
2023/05/03 06:20:40;;;;;;;11.13;6.10;;;;;;;;;;766858;181;920888;-70
2023/05/03 06:23:06;;;;;;;15.60;6.13;;;;;;;;;;761114;180;921276;-69
2023/05/03 06:25:32;;;;;;;13.80;8.27;;;;;;;;;;759365;181;1123680;-70
2023/05/03 06:27:58;;;;;;;16.10;7.43;;;;;;;;;;766920;180;912988;-70
2023/05/03 06:30:24;;;;;;;11.50;6.20;;;;;;;;;;779421;176;911372;-69
2023/05/03 06:32:50;;;;;;;9.43;3.63;;;;;;;;;;760920;180;912449;-70
2023/05/03 06:35:18;;;;;;;11.30;4.20;;;;;;;;;;757299;182;911854;-70
2023/05/03 06:37:42;;;;;;;16.33;5.10;;;;;;;;;;767702;183;917584;-70
2023/05/03 06:40:07;;;;;;;13.50;4.53;;;;;;;;;;760817;180;910212;-69
2023/05/03 06:42:33;;;;;;;11.10;5.00;;;;;;;;;;768600;181;708977;-69
2023/05/03 06:44:59;;;;;;;8.03;2.97;;;;;;;;;;764371;181;811684;-69
2023/05/03 06:47:25;;;;;;;7.10;3.67;;;;;;;;;;763321;181;1023530;-70
2023/05/03 06:49:51;;;;;;;5.80;3.37;;;;;;;;;;766705;177;818960;-69
2023/05/03 06:52:17;;;;;;;6.57;4.57;;;;;;;;;;762639;181;857149;-72
2023/05/03 06:54:42;;;;;;;9.80;3.97;;;;;;;;;;773795;180;820719;-70
2023/05/03 06:57:09;;;;;;;9.80;4.53;;;;;;;;;;766842;181;816579;-70
2023/05/03 06:59:34;;;;;;;9.77;4.30;;;;;;;;;;765592;181;912619;-70
2023/05/03 07:02:00;;;;;;;5.57;3.07;;;;;;;;;;761634;181;911935;-70
2023/05/03 07:04:26;;;;;;;7.23;4.03;;;;;;;;;;759816;181;918145;-71
2023/05/03 07:06:52;;;;;;;6.20;3.33;;;;;;;;;;760978;181;919451;-69
2023/05/03 07:09:18;;;;;;;7.63;4.13;;;;;;;;;;769495;181;815890;-69
2023/05/03 07:11:48;;;;;;;10.03;5.27;;;;;;;;;;761159;181;920570;-69
2023/05/03 07:14:09;;;;;;;5.83;3.73;;;;;;;;;;757313;181;919131;-70
2023/05/03 07:16:35;;;;;;;5.90;3.97;;;;;;;;;;758894;183;916598;-70
2023/05/03 07:19:01;;;;;;;12.70;3.50;;;;;;;;;;755529;181;918557;-69
2023/05/03 07:21:28;;;;;;;7.43;3.53;;;;;;;;;;754459;181;946129;-70
2023/05/03 07:23:53;;;;;;;22.33;6.20;;;;;;;;;;759198;181;920335;-70
2023/05/03 07:26:19;;;;;;;11.70;5.97;;;;;;;;;;768014;181;918602;-70
2023/05/03 07:28:44;;;;;;;11.20;3.97;;;;;;;;;;753370;181;919712;-69
2023/05/03 07:31:11;;;;;;;7.77;4.20;;;;;;;;;;762839;183;1040629;-70
2023/05/03 07:33:36;;;;;;;9.00;4.40;;;;;;;;;;769517;180;881642;-70
2023/05/03 07:36:02;;;;;;;10.37;4.30;;;;;;;;;;764767;180;916530;-70
2023/05/03 07:38:28;;;;;;;7.50;4.43;;;;;;;;;;765108;180;922582;-69
2023/05/03 07:40:54;;;;;;;10.67;4.47;;;;;;;;;;770826;180;819994;-69
2023/05/03 07:43:22;;;;;;;11.80;4.77;;;;;;;;;;763412;180;922034;-70
2023/05/03 07:45:45;;;;;;;6.77;4.33;;;;;;;;;;765434;180;877935;-70
2023/05/03 07:48:11;;;;;;;7.00;4.63;;;;;;;;;;752568;181;925409;-70
2023/05/03 07:50:37;;;;;;;10.27;4.78;;;;;;;;;;755337;183;911986;-69
2023/05/03 07:53:03;;;;;;;9.67;5.17;;;;;;;;;;757757;183;1003978;-69
2023/05/03 07:55:31;;;;;;;13.20;5.53;;;;;;;;;;763168;181;906185;-70
2023/05/03 07:57:58;;;;;;;5.60;3.37;;;;;;;;;;759544;181;845396;-70
2023/05/03 08:00:21;;;;;;;9.60;5.67;;;;;;;;;;761864;181;894447;-70
2023/05/03 08:02:46;;;;;;;9.30;3.27;;;;;;;;;;765170;181;919055;-69
2023/05/03 08:05:13;;;;;;;8.13;6.07;;;;;;;;;;766588;181;920978;-69
2023/05/03 08:07:38;;;;;;;15.70;6.47;;;;;;;;;;758486;181;867589;-69
2023/05/03 08:10:04;;;;;;;7.37;5.30;;;;;;;;;;731118;190;972562;-68
2023/05/03 08:12:30;;;;;;;8.60;4.90;;;;;;;;;;741353;187;921467;-70
2023/05/03 08:14:56;;;;;;;7.93;4.80;;;;;;;;;;757255;184;821698;-69
2023/05/03 08:17:22;;;;;;;8.23;3.73;;;;;;;;;;757650;183;839032;-69
2023/05/03 08:19:48;;;;;;;4.43;2.87;;;;;;;;;;761469;183;918241;-69
2023/05/03 08:22:15;;;;;;;7.47;3.90;;;;;;;;;;766492;181;917002;-69
2023/05/03 08:24:41;;;;;;;8.40;5.60;;;;;;;;;;759125;180;919166;-69
2023/05/03 08:27:06;;;;;;;5.53;3.80;;;;;;;;;;762630;181;919242;-69
2023/05/03 08:29:31;;;;;;;4.73;3.73;;;;;;;;;;762981;181;937012;-69
2023/05/03 08:31:57;;;;;;;6.07;3.63;;;;;;;;;;738598;187;943847;-69
2023/05/03 08:34:23;;;;;;;22.85;4.87;;;;;;;;;;761949;181;1016728;-68
2023/05/03 08:36:49;;;;;;;6.37;3.67;;;;;;;;;;765608;182;914502;-69
2023/05/03 08:39:15;;;;;;;8.70;3.90;;;;;;;;;;759110;183;920812;-69
2023/05/03 08:41:40;;;;;;;6.50;4.03;;;;;;;;;;761147;181;917821;-69
2023/05/03 08:44:06;;;;;;;6.87;4.83;;;;;;;;;;755581;180;927133;-71
2023/05/03 08:46:35;;;;;;;21.60;4.00;;;;;;;;;;767935;180;915162;-71
2023/05/03 08:48:58;;;;;;;9.77;5.03;;;;;;;;;;764365;182;979798;-70
2023/05/03 08:51:24;;;;;;;6.70;3.30;;;;;;;;;;767519;180;925271;-69
2023/05/03 08:53:50;;;;;;;14.47;5.33;;;;;;;;;;771314;181;912771;-71
2023/05/03 08:56:16;;;;;;;4.97;2.67;;;;;;;;;;770681;181;919506;-69
2023/05/03 08:58:42;;;;;;;9.00;4.57;;;;;;;;;;766084;181;910945;-70
2023/05/03 09:01:07;;;;;;;6.75;4.25;;;;;;;;;;765158;183;923166;-70
2023/05/03 09:03:33;;;;;;;8.73;5.73;;;;;;;;;;766632;182;918832;-70
2023/05/03 09:06:00;;;;;;;9.13;4.63;;;;;;;;;;765483;180;814904;-69
2023/05/03 09:08:25;;;;;;;9.33;6.67;;;;;;;;;;758190;183;912359;-71
2023/05/03 09:10:51;;;;;;;13.82;5.82;;;;;;;;;;766408;182;814980;-69
2023/05/03 09:13:17;;;;;;;10.40;5.07;;;;;;;;;;756417;181;918880;-70
2023/05/03 09:15:45;;;;;;;12.83;7.20;;;;;;;;;;766192;181;915651;-70
2023/05/03 09:18:18;;;;;;;15.00;6.77;;;;;;;;;;751240;187;918597;-69
2023/05/03 09:20:50;;;;;;;11.70;6.17;;;;;;;;;;763062;181;918933;-70
2023/05/03 09:23:11;;;;;;;12.37;6.90;;;;;;;;;;760181;181;915992;-70
2023/05/03 09:25:40;;;;;;;10.47;6.47;;;;;;;;;;751056;183;917868;-71
2023/05/03 09:28:06;;;;;;;11.03;5.63;;;;;;;;;;768327;181;917899;-70
2023/05/03 09:30:32;;;;;;;9.40;6.53;;;;;;;;;;760677;181;917711;-71
2023/05/03 09:32:58;;;;;;;16.50;7.35;;;;;;;;;;762503;181;917908;-70
2023/05/03 09:35:23;;;;;;;14.33;8.23;;;;;;;;;;764227;181;937466;-70
2023/05/03 09:37:50;;;;;;;10.77;6.80;;;;;;;;;;765202;179;816965;-70
2023/05/03 09:40:17;;;;;;;12.50;6.73;;;;;;;;;;759200;181;913905;-70
2023/05/03 09:42:46;;;;;;;7.73;4.53;;;;;;;;;;760018;183;918086;-71
2023/05/03 09:45:08;;;;;;;9.60;6.00;;;;;;;;;;767828;181;786117;-70
2023/05/03 09:47:34;;;;;;;9.60;5.13;;;;;;;;;;762958;181;893390;-70
2023/05/03 09:49:59;;;;;;;13.37;7.60;;;;;;;;;;760598;181;913718;-71
2023/05/03 09:52:25;;;;;;;11.23;8.90;;;;;;;;;;767588;181;871329;-70
2023/05/03 09:54:51;;;;;;;14.13;7.83;;;;;;;;;;766813;180;917286;-71
2023/05/03 09:57:17;;;;;;;16.07;6.80;;;;;;;;;;767115;180;863182;-70
2023/05/03 09:59:42;;;;;;;10.83;4.93;;;;;;;;;;765645;179;922901;-70
2023/05/03 10:02:08;;;;;;;9.00;5.03;;;;;;;;;;752759;181;918666;-72
2023/05/03 10:04:39;;;;;;;13.87;6.70;;;;;;;;;;762466;182;817127;-75
2023/05/03 10:07:04;;;;;;;11.37;6.50;;;;;;;;;;755382;180;919412;-76
2023/05/03 10:09:31;;;;;;;11.07;6.23;;;;;;;;;;762977;181;915924;-76
2023/05/03 10:11:57;;;;;;;10.07;5.47;;;;;;;;;;760933;180;917654;-76
2023/05/03 10:14:23;;;;;;;11.85;5.72;;;;;;;;;;761154;181;1371966;-76
2023/05/03 10:16:48;;;;;;;15.80;7.03;;;;;;;;;;774932;181;714578;-76
2023/05/03 10:19:15;;;;;;;16.53;4.47;;;;;;;;;;750442;186;712968;-76
2023/05/03 10:21:51;;;;;;;10.95;5.90;;;;;;;;;;748770;186;919877;-76
2023/05/03 10:24:17;;;;;;;15.80;8.70;;;;;;;;;;765121;180;936208;-76
2023/05/03 10:26:45;;;;;;;13.10;8.23;;;;;;;;;;758798;181;956889;-76
2023/05/03 10:29:16;;;;;;;10.77;6.30;;;;;;;;;;763436;181;918757;-75
2023/05/03 10:31:45;;;;;;;13.77;5.20;;;;;;;;;;756793;180;919405;-77
2023/05/03 10:34:16;;;;;;;13.05;7.18;;;;;;;;;;757003;181;919097;-75
2023/05/03 10:36:43;;;;;;;9.67;3.27;;;;;;;;;;770033;183;817207;-76
2023/05/03 10:39:09;;;;;;;33.60;8.90;;;;;;;;;;765072;181;990631;-76
2023/05/03 10:41:34;;;;;;;11.17;6.07;;;;;;;;;;751866;180;916152;-76
2023/05/03 10:44:00;;;;;;;10.63;7.70;;;;;;;;;;745955;186;916626;-75
2023/05/03 10:46:29;;;;;;;10.95;6.72;;;;;;;;;;756333;183;913023;-76
2023/05/03 10:49:00;;;;;;;20.10;8.50;;;;;;;;;;743832;187;813141;-76
2023/05/03 10:51:31;;;;;;;18.67;9.23;;;;;;;;;;733638;188;851697;-77
2023/05/03 10:53:56;;;;;;;36.20;15.97;;;;;;;;;;735847;188;1015278;-76
2023/05/03 10:56:22;;;;;;;17.30;5.60;;;;;;;;;;741722;190;919014;-77
2023/05/03 10:58:47;;;;;;;8.87;5.03;;;;;;;;;;760094;181;920140;-76
2023/05/03 11:01:13;;;;;;;5.93;3.63;;;;;;;;;;765964;180;918470;-76
2023/05/03 11:03:45;;;;;;;15.53;7.17;;;;;;;;;;769524;181;930605;-76
2023/05/03 11:06:11;;;;;;;45.47;6.00;;;;;;;;;;762846;181;918016;-76
2023/05/03 11:08:37;;;;;;;8.80;4.10;;;;;;;;;;764881;180;815234;-75
2023/05/03 11:11:09;;;;;;;10.20;6.10;;;;;;;;;;767039;180;815110;-77
2023/05/03 11:13:36;;;;;;;14.83;6.53;;;;;;;;;;765717;181;727724;-76
2023/05/03 11:16:02;;;;;;;26.27;5.90;;;;;;;;;;745419;187;919606;-76
2023/05/03 11:18:28;;;;;;;9.70;5.90;;;;;;;;;;764226;181;812543;-76
2023/05/03 11:20:54;;;;;;;12.67;4.23;;;;;;;;;;758453;182;927453;-75
2023/05/03 11:23:20;;;;;;;17.55;7.22;;;;;;;;;;750126;186;824411;-76
2023/05/03 11:25:46;;;;;;;15.60;6.00;;;;;;;;;;739828;186;916688;-76
2023/05/03 11:28:11;;;;;;;9.90;6.00;;;;;;;;;;744574;184;921353;-76
2023/05/03 11:30:37;;;;;;;9.37;6.53;;;;;;;;;;763529;183;817548;-77
2023/05/03 11:33:03;;;;;;;5.17;3.53;;;;;;;;;;760509;183;920859;-77
2023/05/03 11:35:29;;;;;;;8.93;3.73;;;;;;;;;;755487;181;919299;-76
2023/05/03 11:37:55;;;;;;;7.90;3.97;;;;;;;;;;766692;184;916963;-76
2023/05/03 11:40:21;;;;;;;8.50;5.30;;;;;;;;;;762278;181;918051;-77
2023/05/03 11:42:51;;;;;;;13.17;5.20;;;;;;;;;;764378;180;908641;-76
2023/05/03 11:45:17;;;;;;;11.00;5.43;;;;;;;;;;761631;180;824047;-77
2023/05/03 11:47:42;;;;;;;8.03;5.43;;;;;;;;;;766345;181;918252;-77
2023/05/03 11:50:08;;;;;;;8.13;3.87;;;;;;;;;;761945;181;917813;-76
2023/05/03 11:52:34;;;;;;;7.20;3.60;;;;;;;;;;751189;181;863161;-76
2023/05/03 11:55:01;;;;;;;8.70;4.50;;;;;;;;;;768136;181;915462;-77
2023/05/03 11:57:26;;;;;;;10.33;5.30;;;;;;;;;;765163;181;918763;-76
2023/05/03 11:59:52;;;;;;;5.60;3.67;;;;;;;;;;763243;180;922698;-76
2023/05/03 12:02:18;;;;;;;7.80;4.07;;;;;;;;;;763130;181;816590;-77
2023/05/03 12:04:43;;;;;;;10.30;5.30;;;;;;;;;;765572;178;919131;-77
2023/05/03 12:07:09;;;;;;;9.75;6.20;;;;;;;;;;762506;181;917425;-77
2023/05/03 12:09:36;;;;;;;17.70;5.70;;;;;;;;;;764126;180;926634;-77
2023/05/03 12:12:02;;;;;;;6.40;4.10;;;;;;;;;;771798;182;918692;-76
2023/05/03 12:14:28;;;;;;;19.83;6.60;;;;;;;;;;763618;181;817273;-76
2023/05/03 12:16:54;;;;;;;21.57;6.30;;;;;;;;;;763922;181;815837;-76
2023/05/03 12:19:25;;;;;;;9.33;5.07;;;;;;;;;;766787;180;912641;-77
2023/05/03 12:21:51;;;;;;;9.27;7.47;;;;;;;;;;767174;180;920517;-76
2023/05/03 12:24:18;;;;;;;5.47;4.22;;;;;;;;;;762774;180;938242;-76
2023/05/03 12:26:43;;;;;;;9.65;5.20;;;;;;;;;;768694;179;922057;-74
2023/05/03 12:29:09;;;;;;;9.73;5.60;;;;;;;;;;773136;179;912735;-75
2023/05/03 12:31:36;;;;;;;22.43;7.40;;;;;;;;;;757264;183;917366;-76
2023/05/03 12:34:01;;;;;;;10.70;4.20;;;;;;;;;;755898;180;918961;-76
2023/05/03 12:36:27;;;;;;;11.83;5.90;;;;;;;;;;762934;181;916675;-75
2023/05/03 12:38:52;;;;;;;14.50;5.30;;;;;;;;;;755212;181;919373;-76
2023/05/03 12:41:18;;;;;;;6.97;4.53;;;;;;;;;;757971;181;918524;-75
2023/05/03 12:43:44;;;;;;;9.03;5.70;;;;;;;;;;766680;183;887676;-76
2023/05/03 12:46:10;;;;;;;14.50;11.63;;;;;;;;;;764378;180;924333;-76
2023/05/03 12:48:36;;;;;;;6.80;5.10;;;;;;;;;;762513;181;918835;-75
2023/05/03 12:51:03;;;;;;;11.53;6.37;;;;;;;;;;776747;180;898451;-75
2023/05/03 12:53:28;;;;;;;10.97;6.00;;;;;;;;;;763276;182;818631;-77
2023/05/03 12:55:53;;;;;;;8.40;6.30;;;;;;;;;;763111;182;922548;-76
2023/05/03 12:58:19;;;;;;;8.10;4.97;;;;;;;;;;757310;183;1062856;-75
2023/05/03 13:00:46;;;;;;;12.73;8.60;;;;;;;;;;768964;183;818885;-75
2023/05/03 13:03:11;;;;;;;11.13;6.53;;;;;;;;;;763311;181;817308;-76
2023/05/03 13:05:37;;;;;;;11.20;7.93;;;;;;;;;;765223;180;818856;-76
2023/05/03 13:08:03;;;;;;;6.15;4.35;;;;;;;;;;768234;181;920247;-76
2023/05/03 13:10:29;;;;;;;13.90;7.97;;;;;;;;;;764886;181;774624;-75
2023/05/03 13:12:55;;;;;;;11.40;8.27;;;;;;;;;;761985;180;923525;-77
2023/05/03 13:15:23;;;;;;;10.32;6.47;;;;;;;;;;764002;181;913260;-76
2023/05/03 13:17:47;;;;;;;11.27;7.70;;;;;;;;;;763864;182;924119;-76
2023/05/03 13:20:12;;;;;;;11.47;7.47;;;;;;;;;;753275;182;916593;-76
2023/05/03 13:22:38;;;;;;;14.07;8.00;;;;;;;;;;759889;181;922191;-75
2023/05/03 13:25:04;;;;;;;14.20;7.73;;;;;;;;;;764744;180;916341;-76
2023/05/03 13:27:30;;;;;;;11.40;7.10;;;;;;;;;;766020;180;919363;-75
2023/05/03 13:29:56;;;;;;;14.45;7.57;;;;;;;;;;757939;180;1021260;-76
2023/05/03 13:32:22;;;;;;;10.80;6.80;;;;;;;;;;773962;180;920389;-76
2023/05/03 13:34:47;;;;;;;12.13;6.90;;;;;;;;;;739438;186;915659;-76
2023/05/03 13:37:17;;;;;;;10.03;6.03;;;;;;;;;;762831;182;918606;-76
2023/05/03 13:39:39;;;;;;;8.50;5.17;;;;;;;;;;767718;180;920280;-76
2023/05/03 13:42:05;;;;;;;16.77;6.50;;;;;;;;;;761196;180;919630;-74
2023/05/03 13:44:31;;;;;;;11.80;5.50;;;;;;;;;;753348;180;919082;-75
2023/05/03 13:46:57;;;;;;;9.10;7.47;;;;;;;;;;768534;180;918193;-75
2023/05/03 13:49:23;;;;;;;12.03;7.07;;;;;;;;;;776253;177;913883;-76
2023/05/03 13:51:48;;;;;;;11.47;7.00;;;;;;;;;;759244;181;919816;-76
2023/05/03 13:54:14;;;;;;;12.52;8.07;;;;;;;;;;762862;180;924449;-75
2023/05/03 13:56:41;;;;;;;11.10;7.77;;;;;;;;;;737822;190;715585;-75
2023/05/03 13:59:06;;;;;;;11.00;8.43;;;;;;;;;;756443;183;919503;-76
2023/05/03 14:01:32;;;;;;;7.60;6.33;;;;;;;;;;761883;181;1035857;-75
2023/05/03 14:03:58;;;;;;;11.30;8.67;;;;;;;;;;764108;180;809846;-75
2023/05/03 14:06:24;;;;;;;15.30;8.20;;;;;;;;;;762569;180;919743;-75
2023/05/03 14:08:50;;;;;;;10.73;7.80;;;;;;;;;;763758;180;924630;-75